Time;durP1;ratioP1;P1;durP2;ratioP2;P2;SDS_P1;SDS_P2;PMS_P1;PMS_P2;Temp;Humidity;BMP_temperature;BMP_pressure;BME280_temperature;BME280_humidity;BME280_pressure;Samples;Min_cycle;Max_cycle;Signal;HPM_P1;HPM_P2
2024/03/18 00:00:58;;;;;;;6.85;1.58;;;;;;;6.39;68.38;101264.91;4980979;28;20660;-83
2024/03/18 00:03:27;;;;;;;4.38;1.98;;;;;;;6.38;68.51;101272.69;4961323;28;20057;-84
2024/03/18 00:05:53;;;;;;;7.55;1.92;;;;;;;6.37;68.43;101268.34;4961066;28;20039;-84
2024/03/18 00:08:20;;;;;;;6.13;1.95;;;;;;;6.28;68.50;101266.44;4944170;28;20061;-84
2024/03/18 00:10:47;;;;;;;5.63;1.90;;;;;;;6.31;68.28;101268.22;4965509;28;20114;-82
2024/03/18 00:13:13;;;;;;;6.13;2.10;;;;;;;6.28;68.78;101261.25;4957185;28;20047;-82
2024/03/18 00:15:41;;;;;;;5.22;1.50;;;;;;;6.28;68.70;101256.94;4952299;28;20054;-84
2024/03/18 00:18:10;;;;;;;11.48;2.55;;;;;;;6.28;68.53;101259.53;4940979;28;20047;-83
2024/03/18 00:20:40;;;;;;;4.35;1.85;;;;;;;6.22;68.96;101261.13;4950329;28;20054;-84
2024/03/18 00:23:06;;;;;;;5.57;1.25;;;;;;;6.24;68.52;101252.50;4967199;28;20050;-83
2024/03/18 00:25:41;;;;;;;7.05;1.70;;;;;;;6.26;68.49;101258.63;4948460;28;20087;-81
2024/03/18 00:28:10;;;;;;;5.00;1.55;;;;;;;6.26;68.14;101252.56;4960015;28;20077;-83
2024/03/18 00:30:36;;;;;;;7.30;1.90;;;;;;;6.24;68.40;101252.50;4960858;28;20070;-83
2024/03/18 00:33:03;;;;;;;3.40;1.27;;;;;;;6.26;68.37;101252.56;4960273;28;20052;-85
2024/03/18 00:35:30;;;;;;;4.50;1.63;;;;;;;6.21;68.13;101255.06;4958157;28;20042;-84
2024/03/18 00:38:03;;;;;;;4.00;2.13;;;;;;;6.19;68.46;101253.28;4971198;28;20043;-83
2024/03/18 00:40:45;;;;;;;10.93;2.35;;;;;;;6.16;68.49;101253.22;4956963;28;20050;-82
2024/03/18 00:43:11;;;;;;;1.95;1.42;;;;;;;6.05;68.94;101258.19;4933872;28;20051;-83
2024/03/18 00:45:46;;;;;;;5.97;1.55;;;;;;;6.08;68.85;101256.53;4928875;29;20074;-83
2024/03/18 00:48:15;;;;;;;5.13;1.17;;;;;;;5.99;69.30;101251.16;4961300;28;20031;-83
2024/03/18 00:50:44;;;;;;;9.77;1.73;;;;;;;5.99;69.31;101255.50;4942868;28;20078;-82
2024/03/18 00:53:11;;;;;;;5.88;2.70;;;;;;;6.00;69.10;101247.72;4968656;28;20038;-85
2024/03/18 00:55:37;;;;;;;7.30;1.67;;;;;;;5.91;69.39;101245.78;4939597;28;20543;-82
2024/03/18 00:58:04;;;;;;;1.98;0.98;;;;;;;5.88;69.77;101237.94;4956494;28;20039;-83
2024/03/18 01:00:31;;;;;;;4.80;1.83;;;;;;;5.88;69.95;101243.13;4934433;28;20392;-83
2024/03/18 01:02:57;;;;;;;6.85;1.92;;;;;;;5.85;69.84;101237.00;4978258;28;20499;-83
2024/03/18 01:05:24;;;;;;;12.68;2.78;;;;;;;5.84;69.90;101240.44;4956364;28;20418;-83
2024/03/18 01:07:50;;;;;;;5.20;1.95;;;;;;;5.83;70.05;101241.28;4955842;28;20051;-84
2024/03/18 01:10:17;;;;;;;4.55;1.52;;;;;;;5.79;69.91;101240.34;4955864;28;20061;-86
2024/03/18 01:12:44;;;;;;;8.85;1.85;;;;;;;5.78;70.18;101236.88;4951762;28;20093;-84
2024/03/18 01:15:10;;;;;;;6.60;1.70;;;;;;;5.77;69.96;101227.31;4959758;28;20055;-84
2024/03/18 01:17:40;;;;;;;6.70;1.42;;;;;;;5.78;70.21;101228.22;4966259;28;20050;-83
2024/03/18 01:20:14;;;;;;;8.35;1.80;;;;;;;5.78;70.08;101225.59;4955223;28;20054;-83
2024/03/18 01:22:41;;;;;;;5.78;1.02;;;;;;;5.79;70.29;101223.03;4945425;28;20074;-82
2024/03/18 01:25:14;;;;;;;11.65;1.83;;;;;;;5.79;70.22;101224.78;4966445;28;20430;-83
2024/03/18 01:27:50;;;;;;;7.88;1.65;;;;;;;5.76;70.60;101220.38;4962046;28;20097;-84
2024/03/18 01:30:36;;;;;;;7.95;2.40;;;;;;;5.72;70.25;101217.69;4956811;28;20043;-89
2024/03/18 01:33:14;;;;;;;5.85;1.40;;;;;;;5.75;70.21;101221.22;4964933;28;20042;-86
2024/03/18 01:35:49;;;;;;;4.63;1.27;;;;;;;5.70;70.87;101224.59;4961628;28;20042;-89
2024/03/18 01:38:26;;;;;;;4.15;1.27;;;;;;;5.76;70.43;101206.50;4989904;28;20046;-88
2024/03/18 01:41:00;;;;;;;3.38;1.15;;;;;;;5.73;70.48;101206.47;4959114;28;20046;-90
2024/03/18 01:43:27;;;;;;;8.32;1.63;;;;;;;5.81;70.42;101204.88;4956185;28;20115;-87
2024/03/18 01:45:53;;;;;;;9.98;2.28;;;;;;;5.81;70.16;101207.47;4950880;28;20114;-88
2024/03/18 01:48:20;;;;;;;9.80;3.13;;;;;;;5.77;70.05;101198.72;4969109;28;20042;-86
2024/03/18 01:50:48;;;;;;;9.30;2.50;;;;;;;5.79;69.93;101196.19;4955507;28;20073;-87
2024/03/18 01:53:16;;;;;;;6.13;1.55;;;;;;;5.83;70.20;101189.31;4948853;28;20042;-88
2024/03/18 01:55:46;;;;;;;4.30;1.63;;;;;;;5.86;70.07;101192.00;4954159;28;20089;-87
2024/03/18 01:58:12;;;;;;;6.45;1.77;;;;;;;5.85;69.58;101188.50;4952810;28;20122;-87
2024/03/18 02:00:41;;;;;;;8.45;2.00;;;;;;;5.79;69.80;101194.47;4953643;28;20057;-86
2024/03/18 02:03:23;;;;;;;7.30;2.17;;;;;;;5.68;70.06;101171.72;4958112;28;20064;-85
2024/03/18 02:05:50;;;;;;;3.03;1.42;;;;;;;5.69;69.92;101179.53;4977691;28;20037;-86
2024/03/18 02:08:18;;;;;;;5.35;2.53;;;;;;;5.56;70.69;101187.94;4970031;28;20410;-86
2024/03/18 02:10:53;;;;;;;7.60;2.58;;;;;;;5.55;70.79;101187.03;4960156;28;20071;-87
2024/03/18 02:13:20;;;;;;;4.90;1.63;;;;;;;5.54;71.06;101187.91;4974023;28;20057;-85
2024/03/18 02:15:47;;;;;;;6.05;2.50;;;;;;;5.46;71.16;101189.47;4982896;28;20868;-85
2024/03/18 02:18:14;;;;;;;9.02;2.25;;;;;;;5.48;71.21;101180.00;4983997;28;20062;-86
2024/03/18 02:20:40;;;;;;;6.70;1.45;;;;;;;5.55;71.09;101180.97;4954300;28;20055;-88
2024/03/18 02:23:09;;;;;;;3.42;1.42;;;;;;;5.47;71.54;101183.44;4963390;28;20043;-88
2024/03/18 02:25:36;;;;;;;9.70;1.88;;;;;;;5.33;71.79;101187.47;4965427;28;20093;-86
2024/03/18 02:28:02;;;;;;;5.05;2.03;;;;;;;5.34;71.96;101174.50;4954159;28;20051;-88
2024/03/18 02:30:29;;;;;;;3.67;2.33;;;;;;;5.30;71.97;101175.28;4967311;28;20074;-88
2024/03/18 02:32:56;;;;;;;7.97;3.05;;;;;;;5.23;72.50;101181.22;4971601;28;20047;-86
2024/03/18 02:35:23;;;;;;;6.55;2.03;;;;;;;5.27;72.45;101175.22;4966347;28;20046;-87
2024/03/18 02:37:49;;;;;;;7.15;2.17;;;;;;;5.19;72.75;101174.16;4948048;28;20054;-85
2024/03/18 02:40:16;;;;;;;8.88;2.05;;;;;;;5.18;73.31;101181.09;4951904;28;20498;-87
2024/03/18 02:42:43;;;;;;;7.38;2.47;;;;;;;5.16;73.31;101166.34;4948296;28;20050;-85
2024/03/18 02:45:12;;;;;;;10.18;2.80;;;;;;;5.16;73.34;101180.16;4954696;28;20046;-86
2024/03/18 02:47:40;;;;;;;12.07;3.00;;;;;;;5.14;73.32;101166.31;4954468;28;20059;-85
2024/03/18 02:50:09;;;;;;;7.20;1.70;;;;;;;5.18;73.48;101164.66;4952848;28;20058;-87
2024/03/18 02:52:39;;;;;;;12.93;3.03;;;;;;;5.13;73.20;101159.34;4967464;28;20074;-86
2024/03/18 02:55:18;;;;;;;5.40;1.92;;;;;;;5.10;73.70;101149.78;4960359;28;20078;-88
2024/03/18 02:58:03;;;;;;;10.65;2.85;;;;;;;5.09;73.57;101155.81;4965357;28;20043;-89
2024/03/18 03:00:32;;;;;;;6.15;2.38;;;;;;;5.07;73.87;101147.13;4995684;28;20104;-87
2024/03/18 03:03:12;;;;;;;9.80;2.78;;;;;;;5.08;74.25;101148.88;4941211;28;20047;-87
2024/03/18 03:05:39;;;;;;;5.47;2.20;;;;;;;5.08;73.97;101150.59;4985846;28;20066;-85
2024/03/18 03:08:06;;;;;;;9.07;2.53;;;;;;;5.05;74.30;101138.44;4966446;28;20428;-89
2024/03/18 03:10:32;;;;;;;7.75;1.50;;;;;;;5.07;73.99;101131.56;4961997;28;20043;-87
2024/03/18 03:12:59;;;;;;;6.10;2.15;;;;;;;5.05;74.23;101122.84;4957118;28;20438;-85
2024/03/18 03:15:29;;;;;;;5.65;2.03;;;;;;;5.06;74.44;101132.41;4958099;28;20082;-87
2024/03/18 03:17:54;;;;;;;4.32;2.08;;;;;;;4.99;74.31;101124.44;4958378;28;20051;-86
2024/03/18 03:20:30;;;;;;;8.05;1.60;;;;;;;5.01;74.32;101130.56;4948520;29;20125;-87
2024/03/18 03:23:00;;;;;;;7.47;2.83;;;;;;;5.05;74.45;101130.66;4970126;28;20054;-87
2024/03/18 03:25:27;;;;;;;10.40;1.85;;;;;;;4.98;74.35;101131.38;4951735;28;20051;-87
2024/03/18 03:28:00;;;;;;;5.57;1.70;;;;;;;5.02;74.40;101133.19;4962887;28;20081;-86
2024/03/18 03:30:26;;;;;;;3.70;1.70;;;;;;;4.99;74.69;101120.13;4951810;28;20051;-86
2024/03/18 03:32:53;;;;;;;9.77;2.20;;;;;;;5.00;74.27;101114.09;4984675;28;20054;-85
2024/03/18 03:35:20;;;;;;;8.85;1.73;;;;;;;5.02;74.31;101116.72;4966756;28;20047;-86
2024/03/18 03:37:47;;;;;;;8.75;3.60;;;;;;;5.03;74.51;101116.78;4969605;28;20078;-86
2024/03/18 03:40:16;;;;;;;7.60;2.55;;;;;;;5.07;74.32;101115.09;4959937;29;20118;-86
2024/03/18 03:42:43;;;;;;;9.65;1.52;;;;;;;5.04;74.37;101104.66;4971260;28;20035;-85
2024/03/18 03:45:13;;;;;;;5.57;1.55;;;;;;;5.03;74.20;101109.00;4949175;28;20081;-87
2024/03/18 03:47:40;;;;;;;3.35;1.73;;;;;;;5.02;74.61;101111.53;4972529;28;20054;-86
2024/03/18 03:50:10;;;;;;;5.55;1.40;;;;;;;5.06;74.62;101111.66;4972107;28;20078;-89
2024/03/18 03:52:36;;;;;;;6.85;2.15;;;;;;;4.98;74.94;101113.22;4948053;28;20549;-87
2024/03/18 03:55:04;;;;;;;5.10;2.47;;;;;;;4.87;75.41;101102.56;4955579;28;20109;-88
2024/03/18 03:57:30;;;;;;;6.93;1.85;;;;;;;4.90;75.55;101104.38;4956298;28;20046;-86
2024/03/18 03:59:57;;;;;;;3.40;1.92;;;;;;;4.85;75.79;101103.38;4944909;28;20042;-86
2024/03/18 04:02:23;;;;;;;3.97;1.80;;;;;;;4.78;76.45;101097.19;4966953;28;20042;-87
2024/03/18 04:04:50;;;;;;;9.57;2.50;;;;;;;4.70;76.81;101102.22;4950516;28;20050;-85
2024/03/18 04:07:23;;;;;;;7.65;2.00;;;;;;;4.65;77.08;101109.00;4960724;28;20046;-89
2024/03/18 04:09:51;;;;;;;5.55;2.97;;;;;;;4.61;77.50;101104.59;4982001;28;20043;-88
2024/03/18 04:12:23;;;;;;;4.95;1.50;;;;;;;4.61;77.77;101102.88;4953104;28;20054;-87
2024/03/18 04:14:52;;;;;;;5.25;1.92;;;;;;;4.57;77.96;101103.66;4951897;28;20113;-86
2024/03/18 04:17:19;;;;;;;3.55;1.88;;;;;;;4.58;78.34;101104.53;4966398;28;20039;-85
2024/03/18 04:19:46;;;;;;;7.75;1.77;;;;;;;4.59;78.47;101101.97;4971486;28;20119;-86
2024/03/18 04:22:13;;;;;;;3.25;2.10;;;;;;;4.60;78.43;101098.56;4951598;28;20050;-86
2024/03/18 04:24:42;;;;;;;6.38;1.70;;;;;;;4.60;78.51;101098.56;4951761;28;20418;-89
2024/03/18 04:27:09;;;;;;;13.65;2.80;;;;;;;4.59;78.72;101101.97;4946255;29;20078;-86
2024/03/18 04:29:36;;;;;;;6.35;2.78;;;;;;;4.59;78.23;101096.78;4979968;28;20087;-89
2024/03/18 04:32:05;;;;;;;5.78;2.88;;;;;;;4.60;78.72;101089.88;4949448;28;20115;-86
2024/03/18 04:34:32;;;;;;;6.28;1.45;;;;;;;4.62;78.95;101096.84;4948161;28;20066;-89
2024/03/18 04:36:59;;;;;;;3.40;1.70;;;;;;;4.60;78.57;101090.78;4957221;29;20055;-88
2024/03/18 04:39:26;;;;;;;5.63;3.08;;;;;;;4.62;78.89;101090.81;4971628;28;20455;-89
2024/03/18 04:41:55;;;;;;;7.03;1.58;;;;;;;4.64;78.70;101087.41;4948706;28;20612;-87
2024/03/18 04:44:24;;;;;;;8.43;1.75;;;;;;;4.63;78.74;101093.41;4954908;28;20039;-87
2024/03/18 04:46:54;;;;;;;2.40;2.20;;;;;;;4.52;78.84;101081.91;4952192;28;20392;-86
2024/03/18 04:49:21;;;;;;;10.18;1.90;;;;;;;4.50;79.30;101083.63;4951988;28;20472;-87
2024/03/18 04:51:51;;;;;;;5.35;2.17;;;;;;;4.42;79.77;101077.38;4965874;28;20055;-85
2024/03/18 04:54:21;;;;;;;4.15;2.88;;;;;;;4.44;80.12;101075.69;4942359;28;20047;-88
2024/03/18 04:56:48;;;;;;;5.55;1.88;;;;;;;4.38;80.06;101072.97;4967742;28;20958;-89
2024/03/18 04:59:14;;;;;;;4.88;1.42;;;;;;;4.30;80.78;101073.66;4939905;28;20046;-85
2024/03/18 05:01:41;;;;;;;5.88;1.67;;;;;;;4.28;81.01;101079.66;4949749;28;20047;-88
2024/03/18 05:04:11;;;;;;;10.07;2.45;;;;;;;4.18;82.10;101069.91;4974648;28;20102;-87
2024/03/18 05:06:37;;;;;;;3.92;1.30;;;;;;;4.25;81.64;101071.78;4953102;28;20085;-87
2024/03/18 05:09:08;;;;;;;5.45;1.80;;;;;;;4.18;82.16;101069.91;4964226;28;20027;-87
2024/03/18 05:11:38;;;;;;;7.25;1.65;;;;;;;4.18;82.56;101072.50;4968558;28;20058;-88
2024/03/18 05:14:05;;;;;;;4.22;2.10;;;;;;;4.17;82.85;101065.56;4959052;28;20051;-88
2024/03/18 05:16:37;;;;;;;3.60;1.15;;;;;;;4.11;82.71;101061.13;4952134;28;20042;-85
2024/03/18 05:19:05;;;;;;;9.32;2.17;;;;;;;4.09;83.50;101061.09;4957723;28;20045;-86
2024/03/18 05:21:33;;;;;;;8.55;2.33;;;;;;;4.14;83.35;101056.00;4961358;28;20115;-88
2024/03/18 05:24:02;;;;;;;8.00;1.83;;;;;;;4.14;83.69;101066.34;4979307;28;20047;-85
2024/03/18 05:26:30;;;;;;;3.47;1.80;;;;;;;4.07;83.79;101065.34;4993468;28;20062;-88
2024/03/18 05:28:56;;;;;;;4.55;1.90;;;;;;;4.10;83.65;101061.94;4960462;28;20046;-88
2024/03/18 05:31:23;;;;;;;7.15;1.95;;;;;;;4.05;84.30;101072.19;4955128;28;20050;-86
2024/03/18 05:33:50;;;;;;;6.25;2.28;;;;;;;4.15;84.08;101068.13;4987417;28;20074;-88
2024/03/18 05:36:20;;;;;;;8.35;1.98;;;;;;;4.08;84.83;101066.19;4970790;28;20031;-87
2024/03/18 05:38:49;;;;;;;9.50;2.38;;;;;;;4.03;84.59;101065.22;4971896;28;20102;-89
2024/03/18 05:41:17;;;;;;;3.35;1.98;;;;;;;4.13;84.58;101064.59;4948321;28;20073;-86
2024/03/18 05:43:45;;;;;;;7.38;2.05;;;;;;;4.19;84.24;101075.13;4958835;28;20047;-87
2024/03/18 05:46:12;;;;;;;7.53;2.28;;;;;;;4.26;83.72;101074.44;4956580;28;20046;-86
2024/03/18 05:48:44;;;;;;;7.38;3.28;;;;;;;4.20;84.05;101069.09;4976134;28;20049;-90
2024/03/18 05:51:12;;;;;;;7.28;2.03;;;;;;;4.18;84.64;101068.19;4978674;28;20061;-86
2024/03/18 05:53:45;;;;;;;3.88;2.00;;;;;;;4.25;84.72;101071.78;4965890;28;20054;-87
2024/03/18 05:56:14;;;;;;;5.13;1.90;;;;;;;4.27;84.43;101062.34;4976029;28;20039;-87
2024/03/18 05:58:45;;;;;;;9.15;2.60;;;;;;;4.25;84.63;101066.59;4972759;28;20363;-86
2024/03/18 06:01:13;;;;;;;6.13;2.58;;;;;;;4.29;84.56;101058.09;4959644;28;20051;-87
2024/03/18 06:03:41;;;;;;;4.40;2.10;;;;;;;4.20;85.11;101061.34;4975288;28;20047;-87
2024/03/18 06:06:09;;;;;;;9.55;2.55;;;;;;;4.27;84.68;101068.41;4966146;29;20047;-87
2024/03/18 06:08:38;;;;;;;7.25;1.83;;;;;;;4.28;84.92;101054.59;4969434;28;20079;-85
2024/03/18 06:11:11;;;;;;;3.28;2.42;;;;;;;4.32;84.99;101063.34;4981121;28;20043;-88
2024/03/18 06:13:41;;;;;;;5.97;2.28;;;;;;;4.32;84.74;101068.53;4962700;28;20093;-86
2024/03/18 06:16:09;;;;;;;5.28;3.08;;;;;;;4.33;84.73;101062.50;4966567;28;20123;-87
2024/03/18 06:18:40;;;;;;;3.50;1.95;;;;;;;4.18;85.50;101067.31;4962529;28;20152;-88
2024/03/18 06:21:16;;;;;;;5.88;1.98;;;;;;;4.29;85.38;101060.69;4988768;28;20035;-88
2024/03/18 06:23:47;;;;;;;6.80;2.17;;;;;;;4.39;84.73;101062.63;4974390;28;20528;-86
2024/03/18 06:26:14;;;;;;;5.40;2.85;;;;;;;4.43;84.41;101066.16;4952368;28;20047;-86
2024/03/18 06:28:46;;;;;;;5.10;2.33;;;;;;;4.42;84.30;101057.53;4973943;28;20054;-86
2024/03/18 06:31:13;;;;;;;7.72;2.20;;;;;;;4.34;84.56;101065.94;4990539;28;20078;-88
2024/03/18 06:33:40;;;;;;;4.90;2.50;;;;;;;4.45;84.91;101069.69;4975264;28;20054;-87
2024/03/18 06:36:09;;;;;;;6.45;2.88;;;;;;;4.51;84.92;101059.44;4956648;28;20054;-90
2024/03/18 06:38:39;;;;;;;5.97;2.40;;;;;;;4.60;84.48;101062.25;4960790;28;20402;-86
2024/03/18 06:41:09;;;;;;;4.25;2.63;;;;;;;4.56;84.61;101060.44;4948275;28;20050;-89
2024/03/18 06:43:40;;;;;;;5.32;2.70;;;;;;;4.61;84.93;101058.78;4959755;28;20057;-85
2024/03/18 06:46:09;;;;;;;8.43;2.72;;;;;;;4.64;84.81;101064.06;4968595;28;20054;-86
2024/03/18 06:48:40;;;;;;;4.05;1.90;;;;;;;4.52;85.09;101061.19;4955002;28;20059;-87
2024/03/18 06:51:17;;;;;;;6.50;2.47;;;;;;;4.61;85.64;101065.69;4972808;28;20050;-87
2024/03/18 06:53:43;;;;;;;4.85;2.08;;;;;;;4.66;86.38;101056.31;4977119;28;20046;-88
2024/03/18 06:56:11;;;;;;;5.43;2.15;;;;;;;4.78;85.58;101066.06;4952316;28;20105;-87
2024/03/18 06:58:39;;;;;;;4.50;2.10;;;;;;;4.65;85.91;101067.53;4999364;28;20043;-86
2024/03/18 07:01:06;;;;;;;8.50;3.10;;;;;;;4.72;86.28;101065.94;4949565;28;20047;-86
2024/03/18 07:03:33;;;;;;;3.15;1.63;;;;;;;4.80;85.93;101060.06;4964012;28;20051;-87
2024/03/18 07:06:01;;;;;;;11.30;2.58;;;;;;;4.85;86.93;101069.66;4965732;28;20101;-87
2024/03/18 07:08:32;;;;;;;6.25;2.60;;;;;;;4.96;86.46;101070.78;4957986;28;20499;-87
2024/03/18 07:10:58;;;;;;;6.68;2.35;;;;;;;4.90;85.40;101063.75;4969410;28;20050;-89
2024/03/18 07:13:26;;;;;;;4.72;3.25;;;;;;;4.95;86.77;101061.25;4961109;28;20514;-87
2024/03/18 07:15:58;;;;;;;5.78;3.58;;;;;;;4.95;86.35;101066.44;4949673;28;20118;-89
2024/03/18 07:18:25;;;;;;;5.10;3.17;;;;;;;5.03;86.80;101059.69;4963346;28;20380;-88
2024/03/18 07:20:54;;;;;;;12.35;2.60;;;;;;;5.03;87.35;101059.69;4951539;28;20423;-88
2024/03/18 07:23:21;;;;;;;5.88;2.33;;;;;;;5.03;87.08;101069.19;4962581;28;20069;-87
2024/03/18 07:25:51;;;;;;;3.75;2.65;;;;;;;5.05;87.47;101057.13;4970736;28;20075;-86
2024/03/18 07:28:17;;;;;;;6.43;2.78;;;;;;;4.98;87.29;101061.31;4967916;28;20074;-89
2024/03/18 07:30:48;;;;;;;6.82;3.08;;;;;;;5.11;88.55;101057.22;4946895;28;20027;-87
2024/03/18 07:33:16;;;;;;;8.07;3.17;;;;;;;5.14;88.84;101059.91;4981204;28;20066;-88
2024/03/18 07:35:44;;;;;;;7.30;2.65;;;;;;;5.21;87.85;101048.78;4964512;28;20051;-86
2024/03/18 07:38:13;;;;;;;8.82;3.25;;;;;;;5.22;88.16;101058.31;4958252;28;20043;-87
2024/03/18 07:40:40;;;;;;;3.72;2.40;;;;;;;5.17;89.06;101054.75;4952960;28;20111;-86
2024/03/18 07:43:11;;;;;;;4.78;2.53;;;;;;;5.36;87.79;101052.50;4965845;28;20043;-87
2024/03/18 07:45:39;;;;;;;6.75;3.00;;;;;;;5.34;86.52;101044.69;4933225;28;20056;-86
2024/03/18 07:48:08;;;;;;;6.13;2.60;;;;;;;5.44;85.85;101045.75;4915157;29;20139;-89
2024/03/18 07:50:38;;;;;;;8.68;3.05;;;;;;;5.33;85.33;101049.88;4947556;29;20043;-88
2024/03/18 07:53:06;;;;;;;4.72;2.63;;;;;;;5.35;86.08;101049.06;4924831;29;20044;-88
2024/03/18 07:55:37;;;;;;;5.65;3.15;;;;;;;5.29;87.20;101048.94;4948203;29;20079;-87
2024/03/18 07:58:04;;;;;;;9.13;2.50;;;;;;;5.28;86.98;101045.47;4910674;29;20075;-87
2024/03/18 08:00:34;;;;;;;6.32;2.53;;;;;;;5.36;85.78;101049.91;4940541;28;20147;-86
2024/03/18 08:03:00;;;;;;;5.00;2.80;;;;;;;5.56;85.47;101050.31;4948342;28;20066;-88
2024/03/18 08:05:29;;;;;;;4.53;2.40;;;;;;;5.59;84.05;101048.63;4945519;28;20096;-87
2024/03/18 08:07:56;;;;;;;6.10;2.58;;;;;;;5.42;84.67;101058.72;4953095;28;20102;-86
2024/03/18 08:10:24;;;;;;;7.43;2.80;;;;;;;5.40;85.72;101064.72;4936441;29;20082;-86
2024/03/18 08:12:51;;;;;;;5.95;3.08;;;;;;;5.53;85.16;101060.59;4931266;28;20055;-86
2024/03/18 08:15:20;;;;;;;6.70;3.95;;;;;;;5.68;84.77;101050.50;4931141;29;20059;-87
2024/03/18 08:17:46;;;;;;;5.57;3.03;;;;;;;5.83;83.87;101055.09;4932193;28;20047;-87
2024/03/18 08:20:13;;;;;;;7.80;3.15;;;;;;;5.69;83.29;101054.00;4945477;29;20046;-87
2024/03/18 08:22:40;;;;;;;7.10;3.20;;;;;;;5.68;83.46;101057.44;4932967;28;20535;-86
2024/03/18 08:25:09;;;;;;;5.03;2.58;;;;;;;5.88;82.91;101057.75;4928447;29;20055;-87
2024/03/18 08:27:36;;;;;;;7.05;2.85;;;;;;;5.87;82.77;101062.09;4918932;29;20047;-87
2024/03/18 08:30:03;;;;;;;4.53;3.60;;;;;;;5.84;83.06;101061.16;4934095;29;20170;-85
2024/03/18 08:32:30;;;;;;;6.57;3.40;;;;;;;5.82;83.45;101058.53;4931876;29;20048;-86
2024/03/18 08:34:56;;;;;;;5.97;2.85;;;;;;;5.86;81.87;101062.06;4927258;29;20093;-87
2024/03/18 08:37:23;;;;;;;5.72;2.85;;;;;;;5.85;81.64;101061.19;4919380;29;20051;-86
2024/03/18 08:39:52;;;;;;;12.65;3.40;;;;;;;5.75;81.90;101056.66;4936173;29;20103;-87
2024/03/18 08:42:19;;;;;;;5.10;3.15;;;;;;;5.83;81.91;101056.81;4912072;29;20055;-87
2024/03/18 08:44:48;;;;;;;7.57;2.83;;;;;;;5.77;81.86;101057.59;4917461;29;20047;-88
2024/03/18 08:47:15;;;;;;;5.75;3.58;;;;;;;5.97;81.56;101053.59;4925836;29;20438;-88
2024/03/18 08:49:41;;;;;;;5.68;3.40;;;;;;;5.97;81.48;101047.50;4919601;29;20039;-86
2024/03/18 08:52:11;;;;;;;13.43;4.18;;;;;;;6.09;80.49;101049.50;4931973;29;20039;-89
2024/03/18 08:54:38;;;;;;;9.27;3.33;;;;;;;6.24;79.47;101051.44;4926068;29;20047;-88
2024/03/18 08:57:06;;;;;;;8.52;3.83;;;;;;;6.37;79.88;101037.78;4917815;29;20040;-88
2024/03/18 08:59:34;;;;;;;8.32;3.58;;;;;;;6.31;79.66;101044.59;4938360;29;20079;-87
2024/03/18 09:02:04;;;;;;;6.18;3.55;;;;;;;6.22;79.87;101038.44;4923929;29;20110;-86
2024/03/18 09:04:34;;;;;;;8.23;3.88;;;;;;;6.32;79.67;101033.38;4941470;28;20043;-89
2024/03/18 09:07:01;;;;;;;8.20;3.15;;;;;;;6.53;79.25;101038.88;4926477;29;20079;-88
2024/03/18 09:09:31;;;;;;;5.10;3.20;;;;;;;6.61;78.75;101041.59;4934180;29;20059;-88
2024/03/18 09:12:00;;;;;;;7.47;3.90;;;;;;;6.66;78.54;101039.91;4926657;29;20126;-86
2024/03/18 09:14:29;;;;;;;6.22;3.60;;;;;;;6.78;77.73;101044.41;4937313;29;20047;-85
2024/03/18 09:16:57;;;;;;;8.35;4.15;;;;;;;6.84;76.72;101039.25;4916065;29;20067;-87
2024/03/18 09:19:24;;;;;;;6.75;3.45;;;;;;;6.76;76.98;101046.97;4933959;29;20131;-86
2024/03/18 09:21:51;;;;;;;8.98;3.10;;;;;;;6.64;77.07;101052.03;4919058;29;20040;-85
2024/03/18 09:24:18;;;;;;;8.68;3.25;;;;;;;6.79;77.69;101053.94;4923525;28;20078;-87
2024/03/18 09:26:46;;;;;;;9.02;3.47;;;;;;;6.94;76.68;101059.34;4947105;28;20043;-87
2024/03/18 09:29:13;;;;;;;5.90;3.78;;;;;;;7.05;76.48;101053.41;4952215;28;20051;-86
2024/03/18 09:31:42;;;;;;;10.00;4.25;;;;;;;7.12;75.89;101055.25;4945237;28;20150;-86
2024/03/18 09:34:13;;;;;;;12.32;4.13;;;;;;;7.21;75.92;101055.34;4949552;28;20039;-88
2024/03/18 09:36:43;;;;;;;8.45;3.80;;;;;;;7.32;75.46;101054.59;4973097;28;20050;-87
2024/03/18 09:39:12;;;;;;;11.18;3.97;;;;;;;7.49;74.95;101053.03;4931490;29;20039;-87
2024/03/18 09:41:55;;;;;;;6.88;3.83;;;;;;;7.23;76.17;101056.22;4942007;28;20069;-86
2024/03/18 09:44:35;;;;;;;6.88;3.78;;;;;;;7.34;77.55;101053.75;4955505;28;20051;-87
2024/03/18 09:47:04;;;;;;;6.97;3.22;;;;;;;7.55;77.27;101053.09;4948933;28;20070;-86
2024/03/18 09:49:31;;;;;;;7.68;4.15;;;;;;;8.00;77.47;101053.47;4934439;29;20042;-86
2024/03/18 09:52:00;;;;;;;10.00;3.80;;;;;;;8.33;76.21;101052.00;4935709;28;20050;-86
2024/03/18 09:54:26;;;;;;;7.22;4.22;;;;;;;8.41;75.06;101057.28;4958997;28;20082;-88
2024/03/18 09:57:05;;;;;;;9.13;4.57;;;;;;;8.67;74.45;101057.47;4931292;28;20054;-86
2024/03/18 09:59:35;;;;;;;10.32;4.40;;;;;;;8.73;73.92;101048.78;4935586;29;20052;-87
2024/03/18 10:02:02;;;;;;;7.97;4.63;;;;;;;8.60;71.76;101046.13;4959714;28;20038;-88
2024/03/18 10:04:29;;;;;;;5.20;3.67;;;;;;;8.71;71.06;101048.78;4959646;28;20046;-84
2024/03/18 10:07:01;;;;;;;6.45;3.95;;;;;;;8.59;70.76;101043.47;4945975;28;20043;-87
2024/03/18 10:09:30;;;;;;;7.40;4.40;;;;;;;8.60;70.28;101035.66;4951655;29;20055;-87
2024/03/18 10:11:57;;;;;;;10.27;5.35;;;;;;;8.71;71.75;101040.94;4947054;28;20051;-87
2024/03/18 10:14:26;;;;;;;11.02;5.68;;;;;;;8.78;71.01;101040.09;4934361;29;20047;-86
2024/03/18 10:16:53;;;;;;;6.82;3.85;;;;;;;9.17;70.85;101039.38;4945673;28;20063;-87
2024/03/18 10:19:21;;;;;;;10.95;4.00;;;;;;;9.71;70.38;101042.09;4938156;29;20047;-88
2024/03/18 10:21:47;;;;;;;7.88;4.45;;;;;;;9.89;68.59;101041.22;4945375;29;20055;-87
2024/03/18 10:24:15;;;;;;;9.27;3.78;;;;;;;9.85;67.90;101037.72;4933433;29;20095;-87
2024/03/18 10:26:46;;;;;;;6.50;3.60;;;;;;;10.09;66.89;101030.78;4935511;28;20053;-87
2024/03/18 10:29:12;;;;;;;7.28;4.30;;;;;;;10.70;65.13;101039.38;4948227;29;20039;-87
2024/03/18 10:31:39;;;;;;;8.40;3.80;;;;;;;11.31;61.84;101029.50;4932511;28;20865;-84
2024/03/18 10:34:08;;;;;;;8.75;4.57;;;;;;;12.03;59.77;101029.03;4926952;28;20107;-85
2024/03/18 10:36:39;;;;;;;9.35;4.20;;;;;;;12.63;57.75;101016.16;4928513;28;20049;-87
2024/03/18 10:39:09;;;;;;;8.15;4.32;;;;;;;12.89;56.26;101015.81;4931416;28;20102;-86
2024/03/18 10:41:48;;;;;;;8.93;3.80;;;;;;;12.66;55.61;101014.38;4939270;28;20047;-86
2024/03/18 10:44:21;;;;;;;9.10;4.13;;;;;;;12.24;56.49;101027.06;4949999;28;20114;-87
2024/03/18 10:46:50;;;;;;;7.88;4.70;;;;;;;12.15;55.87;101019.28;4933598;28;20052;-86
2024/03/18 10:49:21;;;;;;;7.18;4.20;;;;;;;11.60;56.65;101018.81;4947545;29;20054;-86
2024/03/18 10:51:53;;;;;;;8.20;3.58;;;;;;;12.25;56.00;101010.41;4942397;28;20367;-86
2024/03/18 10:54:19;;;;;;;11.80;4.78;;;;;;;12.98;53.91;101002.56;4928318;28;20043;-85
2024/03/18 10:56:49;;;;;;;8.40;4.40;;;;;;;13.15;53.27;101006.72;4932403;28;20067;-86
2024/03/18 10:59:19;;;;;;;8.40;4.47;;;;;;;12.91;53.99;100998.28;4937553;28;20102;-85
2024/03/18 11:01:47;;;;;;;8.68;4.63;;;;;;;12.91;53.12;100999.16;4948210;28;20078;-86
2024/03/18 11:04:25;;;;;;;5.07;3.97;;;;;;;12.62;53.92;101002.16;4931341;28;20062;-87
2024/03/18 11:06:55;;;;;;;9.60;4.18;;;;;;;12.04;55.69;101009.75;4950414;28;20055;-85
2024/03/18 11:09:24;;;;;;;12.68;4.15;;;;;;;11.63;56.16;101012.69;4926641;29;20050;-87
2024/03/18 11:11:55;;;;;;;8.65;4.68;;;;;;;11.68;56.24;101009.16;4947290;28;20039;-87
2024/03/18 11:14:27;;;;;;;9.32;4.50;;;;;;;12.22;55.69;101006.06;4947216;29;20054;-87
2024/03/18 11:16:56;;;;;;;9.50;4.85;;;;;;;11.72;55.36;101008.25;4947745;29;20380;-85
2024/03/18 11:19:30;;;;;;;9.60;5.25;;;;;;;11.90;56.07;100999.34;4942662;29;20056;-86
2024/03/18 11:22:04;;;;;;;8.43;4.75;;;;;;;11.58;55.78;100997.00;4936952;28;20066;-86
2024/03/18 11:24:34;;;;;;;7.60;3.67;;;;;;;11.79;56.04;101003.81;4931131;29;20507;-86
2024/03/18 11:27:02;;;;;;;5.68;4.35;;;;;;;11.77;55.96;101002.09;4946394;29;20033;-87
2024/03/18 11:29:41;;;;;;;4.65;4.13;;;;;;;11.82;56.27;100997.69;4920814;29;20106;-86
2024/03/18 11:32:11;;;;;;;9.13;4.93;;;;;;;12.04;55.57;100991.38;4914074;28;20522;-84
2024/03/18 11:34:38;;;;;;;8.43;4.38;;;;;;;12.30;54.99;100995.50;4924625;29;20108;-86
2024/03/18 11:37:11;;;;;;;8.70;4.78;;;;;;;12.35;54.44;101001.56;4943645;29;20439;-85
2024/03/18 11:39:38;;;;;;;10.40;4.80;;;;;;;12.17;54.24;101000.00;4932747;29;20062;-87